sensor_id;sensor_type;location;lat;lon;timestamp;noise_LAeq;noise_LA_min;noise_LA_max;noise_LA01;noise_LA95
43787;Laerm;29409;49.306;8.500;2023-05-07T00:00:55;39.96;36.45;44.47;;
43787;Laerm;29409;49.306;8.500;2023-05-07T00:01:56;39.96;35.94;42.35;;
43787;Laerm;29409;49.306;8.500;2023-05-07T00:02:56;40.16;36.20;42.53;;
43787;Laerm;29409;49.306;8.500;2023-05-07T00:03:57;39.58;35.94;41.96;;
43787;Laerm;29409;49.306;8.500;2023-05-07T00:04:57;40.35;36.45;44.94;;
43787;Laerm;29409;49.306;8.500;2023-05-07T00:05:58;41.94;37.70;44.69;;
43787;Laerm;29409;49.306;8.500;2023-05-07T00:06:58;40.89;37.32;43.49;;
43787;Laerm;29409;49.306;8.500;2023-05-07T00:07:58;41.97;38.60;46.55;;
43787;Laerm;29409;49.306;8.500;2023-05-07T00:08:59;40.17;36.91;44.19;;
43787;Laerm;29409;49.306;8.500;2023-05-07T00:10:00;39.17;36.20;44.07;;
43787;Laerm;29409;49.306;8.500;2023-05-07T00:11:01;39.22;35.66;44.39;;
43787;Laerm;29409;49.306;8.500;2023-05-07T00:12:01;39.34;35.94;43.24;;
43787;Laerm;29409;49.306;8.500;2023-05-07T00:13:01;39.41;35.66;44.43;;
43787;Laerm;29409;49.306;8.500;2023-05-07T00:14:02;39.43;35.04;43.72;;
43787;Laerm;29409;49.306;8.500;2023-05-07T00:15:03;40.07;35.04;43.44;;
43787;Laerm;29409;49.306;8.500;2023-05-07T00:16:03;39.99;35.94;43.39;;
43787;Laerm;29409;49.306;8.500;2023-05-07T00:17:03;39.77;36.20;43.77;;
43787;Laerm;29409;49.306;8.500;2023-05-07T00:18:04;39.84;36.20;43.19;;
43787;Laerm;29409;49.306;8.500;2023-05-07T00:19:04;40.68;36.69;46.67;;
43787;Laerm;29409;49.306;8.500;2023-05-07T00:20:05;40.70;36.69;42.98;;
43787;Laerm;29409;49.306;8.500;2023-05-07T00:21:05;44.43;37.12;58.18;;
43787;Laerm;29409;49.306;8.500;2023-05-07T00:22:05;41.00;37.70;43.19;;
43787;Laerm;29409;49.306;8.500;2023-05-07T00:23:05;40.19;35.94;45.30;;
43787;Laerm;29409;49.306;8.500;2023-05-07T00:24:06;39.15;35.36;49.75;;
43787;Laerm;29409;49.306;8.500;2023-05-07T00:25:06;40.60;36.20;46.40;;
43787;Laerm;29409;49.306;8.500;2023-05-07T00:26:07;39.94;35.36;45.04;;
43787;Laerm;29409;49.306;8.500;2023-05-07T00:27:07;38.99;35.66;41.30;;
43787;Laerm;29409;49.306;8.500;2023-05-07T00:28:07;39.54;35.94;42.29;;
43787;Laerm;29409;49.306;8.500;2023-05-07T00:29:07;40.44;36.91;43.55;;
43787;Laerm;29409;49.306;8.500;2023-05-07T00:30:08;39.92;35.94;42.22;;
43787;Laerm;29409;49.306;8.500;2023-05-07T00:31:08;40.39;36.20;44.15;;
43787;Laerm;29409;49.306;8.500;2023-05-07T00:32:09;39.28;35.36;43.19;;
43787;Laerm;29409;49.306;8.500;2023-05-07T00:33:10;38.89;35.04;42.88;;
43787;Laerm;29409;49.306;8.500;2023-05-07T00:34:10;39.19;35.66;43.39;;
43787;Laerm;29409;49.306;8.500;2023-05-07T00:35:11;39.15;35.94;43.77;;
43787;Laerm;29409;49.306;8.500;2023-05-07T00:36:11;39.33;35.94;42.53;;
43787;Laerm;29409;49.306;8.500;2023-05-07T00:37:11;39.33;36.20;44.23;;
43787;Laerm;29409;49.306;8.500;2023-05-07T00:38:12;39.80;36.20;42.88;;
43787;Laerm;29409;49.306;8.500;2023-05-07T00:39:12;39.37;36.45;43.09;;
43787;Laerm;29409;49.306;8.500;2023-05-07T00:40:12;39.15;33.44;43.54;;
43787;Laerm;29409;49.306;8.500;2023-05-07T00:41:12;39.47;35.66;42.47;;
43787;Laerm;29409;49.306;8.500;2023-05-07T00:42:13;44.13;39.46;51.37;;
43787;Laerm;29409;49.306;8.500;2023-05-07T00:43:15;41.15;37.32;45.72;;
43787;Laerm;29409;49.306;8.500;2023-05-07T00:44:15;40.59;36.91;46.23;;
43787;Laerm;29409;49.306;8.500;2023-05-07T00:45:15;39.39;35.94;41.53;;
43787;Laerm;29409;49.306;8.500;2023-05-07T00:46:17;40.18;36.45;42.71;;
43787;Laerm;29409;49.306;8.500;2023-05-07T00:47:17;40.42;36.10;43.24;;
43787;Laerm;29409;49.306;8.500;2023-05-07T00:48:17;39.12;36.20;43.04;;
43787;Laerm;29409;49.306;8.500;2023-05-07T00:49:18;39.99;36.20;42.98;;
43787;Laerm;29409;49.306;8.500;2023-05-07T00:50:19;39.71;35.66;42.53;;
43787;Laerm;29409;49.306;8.500;2023-05-07T00:51:20;40.15;35.66;43.94;;
43787;Laerm;29409;49.306;8.500;2023-05-07T00:52:20;42.42;37.12;45.60;;
43787;Laerm;29409;49.306;8.500;2023-05-07T00:53:21;39.76;35.04;42.13;;
43787;Laerm;29409;49.306;8.500;2023-05-07T00:54:22;39.55;36.34;43.86;;
43787;Laerm;29409;49.306;8.500;2023-05-07T00:55:22;39.53;36.45;41.61;;
43787;Laerm;29409;49.306;8.500;2023-05-07T00:56:23;39.37;35.01;43.34;;
43787;Laerm;29409;49.306;8.500;2023-05-07T00:57:24;39.17;35.94;41.46;;
43787;Laerm;29409;49.306;8.500;2023-05-07T00:58:25;38.84;34.69;43.49;;
43787;Laerm;29409;49.306;8.500;2023-05-07T00:59:25;38.63;35.36;40.98;;
43787;Laerm;29409;49.306;8.500;2023-05-07T01:00:26;38.79;34.31;41.30;;
43787;Laerm;29409;49.306;8.500;2023-05-07T01:01:26;39.64;35.36;44.51;;
43787;Laerm;29409;49.306;8.500;2023-05-07T01:02:27;39.28;36.20;41.53;;
43787;Laerm;29409;49.306;8.500;2023-05-07T01:03:27;39.01;35.66;41.61;;
43787;Laerm;29409;49.306;8.500;2023-05-07T01:04:28;39.36;35.94;42.82;;
43787;Laerm;29409;49.306;8.500;2023-05-07T01:05:29;38.95;34.69;42.71;;
43787;Laerm;29409;49.306;8.500;2023-05-07T01:06:30;38.71;35.36;41.30;;
43787;Laerm;29409;49.306;8.500;2023-05-07T01:07:32;38.75;35.04;41.22;;
43787;Laerm;29409;49.306;8.500;2023-05-07T01:08:33;42.57;35.36;71.22;;
43787;Laerm;29409;49.306;8.500;2023-05-07T01:09:35;39.34;35.66;43.19;;
43787;Laerm;29409;49.306;8.500;2023-05-07T01:10:36;39.98;35.94;44.83;;
43787;Laerm;29409;49.306;8.500;2023-05-07T01:11:36;38.92;35.36;41.30;;
43787;Laerm;29409;49.306;8.500;2023-05-07T01:12:37;39.04;33.90;44.03;;
43787;Laerm;29409;49.306;8.500;2023-05-07T01:13:37;40.32;36.45;43.54;;
43787;Laerm;29409;49.306;8.500;2023-05-07T01:14:38;39.01;35.36;43.34;;
43787;Laerm;29409;49.306;8.500;2023-05-07T01:15:38;38.92;34.31;43.72;;
43787;Laerm;29409;49.306;8.500;2023-05-07T01:16:40;39.87;35.36;44.90;;
43787;Laerm;29409;49.306;8.500;2023-05-07T01:17:41;39.96;35.94;43.68;;
43787;Laerm;29409;49.306;8.500;2023-05-07T01:18:42;38.99;36.20;42.93;;
43787;Laerm;29409;49.306;8.500;2023-05-07T01:19:42;39.18;35.66;43.34;;
43787;Laerm;29409;49.306;8.500;2023-05-07T01:20:44;40.40;36.20;43.86;;
43787;Laerm;29409;49.306;8.500;2023-05-07T01:21:45;39.78;35.36;44.03;;
43787;Laerm;29409;49.306;8.500;2023-05-07T01:22:46;39.37;35.66;42.65;;
43787;Laerm;29409;49.306;8.500;2023-05-07T01:23:46;38.82;35.36;42.16;;
43787;Laerm;29409;49.306;8.500;2023-05-07T01:24:47;38.65;33.44;40.89;;
43787;Laerm;29409;49.306;8.500;2023-05-07T01:25:51;38.60;35.01;44.15;;
43787;Laerm;29409;49.306;8.500;2023-05-07T01:26:51;39.07;35.94;43.04;;
43787;Laerm;29409;49.306;8.500;2023-05-07T01:27:51;38.89;35.66;42.03;;
43787;Laerm;29409;49.306;8.500;2023-05-07T01:28:52;40.38;35.04;50.70;;
43787;Laerm;29409;49.306;8.500;2023-05-07T01:29:52;38.35;34.69;41.53;;
43787;Laerm;29409;49.306;8.500;2023-05-07T01:30:53;38.74;35.31;42.88;;
43787;Laerm;29409;49.306;8.500;2023-05-07T01:31:58;38.80;35.36;43.09;;
43787;Laerm;29409;49.306;8.500;2023-05-07T01:33:01;38.67;34.31;42.76;;
43787;Laerm;29409;49.306;8.500;2023-05-07T01:34:05;38.54;34.31;42.59;;
43787;Laerm;29409;49.306;8.500;2023-05-07T01:35:07;38.41;33.90;43.29;;
43787;Laerm;29409;49.306;8.500;2023-05-07T01:36:09;40.22;34.31;50.51;;
43787;Laerm;29409;49.306;8.500;2023-05-07T01:37:11;38.34;34.34;41.14;;
43787;Laerm;29409;49.306;8.500;2023-05-07T01:38:12;43.60;34.69;57.35;;
43787;Laerm;29409;49.306;8.500;2023-05-07T01:39:13;38.88;35.66;42.41;;
43787;Laerm;29409;49.306;8.500;2023-05-07T01:40:13;38.93;35.36;41.68;;
43787;Laerm;29409;49.306;8.500;2023-05-07T01:41:15;38.84;34.69;41.14;;
43787;Laerm;29409;49.306;8.500;2023-05-07T01:42:15;38.73;35.04;42.93;;
43787;Laerm;29409;49.306;8.500;2023-05-07T01:43:15;38.77;35.04;42.71;;
43787;Laerm;29409;49.306;8.500;2023-05-07T01:44:16;38.61;35.04;42.09;;
43787;Laerm;29409;49.306;8.500;2023-05-07T01:45:18;38.96;33.90;43.39;;
43787;Laerm;29409;49.306;8.500;2023-05-07T01:46:18;38.79;33.90;43.29;;
43787;Laerm;29409;49.306;8.500;2023-05-07T01:47:19;39.33;35.04;42.82;;
43787;Laerm;29409;49.306;8.500;2023-05-07T01:48:20;39.04;35.94;41.68;;
43787;Laerm;29409;49.306;8.500;2023-05-07T01:49:21;39.32;35.04;42.41;;
43787;Laerm;29409;49.306;8.500;2023-05-07T01:50:21;38.85;34.31;41.38;;
43787;Laerm;29409;49.306;8.500;2023-05-07T01:51:21;38.45;34.69;40.98;;
43787;Laerm;29409;49.306;8.500;2023-05-07T01:52:22;38.39;32.93;40.98;;
43787;Laerm;29409;49.306;8.500;2023-05-07T01:53:22;39.47;35.04;47.04;;
43787;Laerm;29409;49.306;8.500;2023-05-07T01:54:25;39.04;34.69;41.89;;
43787;Laerm;29409;49.306;8.500;2023-05-07T01:55:27;39.27;36.20;42.03;;
43787;Laerm;29409;49.306;8.500;2023-05-07T01:56:28;39.93;35.36;43.46;;
43787;Laerm;29409;49.306;8.500;2023-05-07T01:57:28;39.82;36.20;44.94;;
43787;Laerm;29409;49.306;8.500;2023-05-07T01:58:28;39.81;36.45;49.20;;
43787;Laerm;29409;49.306;8.500;2023-05-07T01:59:28;39.65;36.45;43.49;;
43787;Laerm;29409;49.306;8.500;2023-05-07T02:00:29;39.16;35.66;44.73;;
43787;Laerm;29409;49.306;8.500;2023-05-07T02:01:29;38.86;33.44;43.77;;
43787;Laerm;29409;49.306;8.500;2023-05-07T02:02:29;38.92;34.31;42.82;;
43787;Laerm;29409;49.306;8.500;2023-05-07T02:03:30;39.38;35.66;42.76;;
43787;Laerm;29409;49.306;8.500;2023-05-07T02:04:30;39.46;36.69;42.98;;
43787;Laerm;29409;49.306;8.500;2023-05-07T02:05:30;39.55;36.69;45.89;;
43787;Laerm;29409;49.306;8.500;2023-05-07T02:06:31;39.49;35.94;46.18;;
43787;Laerm;29409;49.306;8.500;2023-05-07T02:07:31;40.00;34.69;45.04;;
43787;Laerm;29409;49.306;8.500;2023-05-07T02:08:31;40.83;37.70;45.07;;
43787;Laerm;29409;49.306;8.500;2023-05-07T02:09:32;40.34;36.45;45.99;;
43787;Laerm;29409;49.306;8.500;2023-05-07T02:10:32;40.60;38.05;43.58;;
43787;Laerm;29409;49.306;8.500;2023-05-07T02:11:32;40.44;37.52;44.19;;
43787;Laerm;29409;49.306;8.500;2023-05-07T02:12:32;40.51;37.70;45.01;;
43787;Laerm;29409;49.306;8.500;2023-05-07T02:13:33;40.59;37.88;45.66;;
43787;Laerm;29409;49.306;8.500;2023-05-07T02:14:34;40.07;37.12;44.87;;
43787;Laerm;29409;49.306;8.500;2023-05-07T02:15:34;40.03;36.91;42.76;;
43787;Laerm;29409;49.306;8.500;2023-05-07T02:16:35;40.49;37.32;46.23;;
43787;Laerm;29409;49.306;8.500;2023-05-07T02:17:35;39.84;36.20;45.48;;
43787;Laerm;29409;49.306;8.500;2023-05-07T02:18:37;39.93;36.69;47.12;;
43787;Laerm;29409;49.306;8.500;2023-05-07T02:19:37;39.68;36.69;45.17;;
43787;Laerm;29409;49.306;8.500;2023-05-07T02:20:38;39.95;36.20;43.54;;
43787;Laerm;29409;49.306;8.500;2023-05-07T02:21:38;39.95;36.69;46.02;;
43787;Laerm;29409;49.306;8.500;2023-05-07T02:22:38;40.71;37.70;44.87;;
43787;Laerm;29409;49.306;8.500;2023-05-07T02:23:38;40.41;37.32;44.73;;
43787;Laerm;29409;49.306;8.500;2023-05-07T02:24:38;40.67;37.12;43.39;;
43787;Laerm;29409;49.306;8.500;2023-05-07T02:25:39;40.21;36.20;45.94;;
43787;Laerm;29409;49.306;8.500;2023-05-07T02:26:40;39.82;36.91;42.09;;
43787;Laerm;29409;49.306;8.500;2023-05-07T02:27:40;39.56;36.45;45.20;;
43787;Laerm;29409;49.306;8.500;2023-05-07T02:28:41;39.76;35.86;43.81;;
43787;Laerm;29409;49.306;8.500;2023-05-07T02:29:41;39.59;35.66;42.93;;
43787;Laerm;29409;49.306;8.500;2023-05-07T02:30:41;39.78;36.20;41.96;;
43787;Laerm;29409;49.306;8.500;2023-05-07T02:31:41;39.24;36.20;41.82;;
43787;Laerm;29409;49.306;8.500;2023-05-07T02:32:42;39.24;36.20;41.96;;
43787;Laerm;29409;49.306;8.500;2023-05-07T02:33:42;40.22;36.91;44.27;;
43787;Laerm;29409;49.306;8.500;2023-05-07T02:34:42;41.31;38.37;43.99;;
43787;Laerm;29409;49.306;8.500;2023-05-07T02:35:42;40.07;37.32;42.85;;
43787;Laerm;29409;49.306;8.500;2023-05-07T02:36:43;39.96;36.77;42.29;;
43787;Laerm;29409;49.306;8.500;2023-05-07T02:37:43;39.71;36.69;42.22;;
43787;Laerm;29409;49.306;8.500;2023-05-07T02:38:43;39.67;35.66;43.19;;
43787;Laerm;29409;49.306;8.500;2023-05-07T02:39:43;39.27;35.94;41.46;;
43787;Laerm;29409;49.306;8.500;2023-05-07T02:40:44;39.35;36.20;42.29;;
43787;Laerm;29409;49.306;8.500;2023-05-07T02:41:44;39.73;35.94;44.43;;
43787;Laerm;29409;49.306;8.500;2023-05-07T02:42:44;39.44;35.66;41.53;;
43787;Laerm;29409;49.306;8.500;2023-05-07T02:43:44;39.26;36.20;41.82;;
43787;Laerm;29409;49.306;8.500;2023-05-07T02:44:45;39.45;35.94;43.77;;
43787;Laerm;29409;49.306;8.500;2023-05-07T02:45:45;39.71;36.20;45.11;;
43787;Laerm;29409;49.306;8.500;2023-05-07T02:46:45;39.34;35.66;43.99;;
43787;Laerm;29409;49.306;8.500;2023-05-07T02:47:45;39.31;35.94;42.03;;
43787;Laerm;29409;49.306;8.500;2023-05-07T02:48:46;39.75;36.20;42.00;;
43787;Laerm;29409;49.306;8.500;2023-05-07T02:49:46;39.62;35.36;42.16;;
43787;Laerm;29409;49.306;8.500;2023-05-07T02:50:47;39.06;35.59;41.61;;
43787;Laerm;29409;49.306;8.500;2023-05-07T02:51:47;38.95;35.36;41.38;;
43787;Laerm;29409;49.306;8.500;2023-05-07T02:52:47;39.29;35.66;41.61;;
43787;Laerm;29409;49.306;8.500;2023-05-07T02:53:48;39.45;36.45;43.49;;
43787;Laerm;29409;49.306;8.500;2023-05-07T02:54:48;40.26;36.20;55.85;;
43787;Laerm;29409;49.306;8.500;2023-05-07T02:55:48;39.85;36.69;43.86;;
43787;Laerm;29409;49.306;8.500;2023-05-07T02:56:49;40.67;37.12;44.62;;
43787;Laerm;29409;49.306;8.500;2023-05-07T02:57:49;39.99;36.69;44.90;;
43787;Laerm;29409;49.306;8.500;2023-05-07T02:58:49;40.26;36.69;43.49;;
43787;Laerm;29409;49.306;8.500;2023-05-07T02:59:50;43.31;39.70;47.06;;
43787;Laerm;29409;49.306;8.500;2023-05-07T03:00:50;40.25;36.20;43.54;;
43787;Laerm;29409;49.306;8.500;2023-05-07T03:01:51;39.76;36.69;43.04;;
43787;Laerm;29409;49.306;8.500;2023-05-07T03:02:51;39.99;36.77;45.80;;
43787;Laerm;29409;49.306;8.500;2023-05-07T03:03:51;39.91;36.20;44.73;;
43787;Laerm;29409;49.306;8.500;2023-05-07T03:04:52;40.07;36.91;47.54;;
43787;Laerm;29409;49.306;8.500;2023-05-07T03:05:52;41.10;36.69;47.44;;
43787;Laerm;29409;49.306;8.500;2023-05-07T03:06:52;40.70;37.52;47.81;;
43787;Laerm;29409;49.306;8.500;2023-05-07T03:07:53;40.33;37.12;47.86;;
43787;Laerm;29409;49.306;8.500;2023-05-07T03:08:53;40.00;36.69;47.32;;
43787;Laerm;29409;49.306;8.500;2023-05-07T03:09:53;40.45;37.32;50.31;;
43787;Laerm;29409;49.306;8.500;2023-05-07T03:10:53;40.97;36.69;46.52;;
43787;Laerm;29409;49.306;8.500;2023-05-07T03:11:54;41.12;37.52;46.28;;
43787;Laerm;29409;49.306;8.500;2023-05-07T03:12:54;41.63;37.88;55.22;;
43787;Laerm;29409;49.306;8.500;2023-05-07T03:13:54;41.44;37.88;50.73;;
43787;Laerm;29409;49.306;8.500;2023-05-07T03:14:54;40.90;38.05;45.51;;
43787;Laerm;29409;49.306;8.500;2023-05-07T03:15:55;40.57;37.52;45.42;;
43787;Laerm;29409;49.306;8.500;2023-05-07T03:16:55;40.94;37.12;46.50;;
43787;Laerm;29409;49.306;8.500;2023-05-07T03:17:55;41.61;38.95;46.82;;
43787;Laerm;29409;49.306;8.500;2023-05-07T03:18:56;41.91;38.81;48.63;;
43787;Laerm;29409;49.306;8.500;2023-05-07T03:19:56;41.81;39.21;48.32;;
43787;Laerm;29409;49.306;8.500;2023-05-07T03:20:56;41.43;37.70;47.84;;
43787;Laerm;29409;49.306;8.500;2023-05-07T03:21:57;41.24;38.21;47.88;;
43787;Laerm;29409;49.306;8.500;2023-05-07T03:22:57;41.53;37.52;46.89;;
43787;Laerm;29409;49.306;8.500;2023-05-07T03:23:57;42.62;37.88;54.45;;
43787;Laerm;29409;49.306;8.500;2023-05-07T03:24:58;42.09;38.52;50.13;;
43787;Laerm;29409;49.306;8.500;2023-05-07T03:25:58;41.21;37.70;44.15;;
43787;Laerm;29409;49.306;8.500;2023-05-07T03:26:58;40.41;37.32;44.11;;
43787;Laerm;29409;49.306;8.500;2023-05-07T03:27:59;42.22;37.52;45.97;;
43787;Laerm;29409;49.306;8.500;2023-05-07T03:28:59;41.26;37.32;47.50;;
43787;Laerm;29409;49.306;8.500;2023-05-07T03:30:00;41.21;37.12;48.12;;
43787;Laerm;29409;49.306;8.500;2023-05-07T03:31:00;41.31;36.91;48.46;;
43787;Laerm;29409;49.306;8.500;2023-05-07T03:32:00;41.84;37.52;49.00;;
43787;Laerm;29409;49.306;8.500;2023-05-07T03:33:01;42.17;37.12;50.98;;
43787;Laerm;29409;49.306;8.500;2023-05-07T03:34:01;41.77;37.32;50.85;;
43787;Laerm;29409;49.306;8.500;2023-05-07T03:35:01;42.43;37.32;50.73;;
43787;Laerm;29409;49.306;8.500;2023-05-07T03:36:02;43.20;38.37;52.73;;
43787;Laerm;29409;49.306;8.500;2023-05-07T03:37:02;42.60;37.70;52.58;;
43787;Laerm;29409;49.306;8.500;2023-05-07T03:38:03;42.84;37.88;53.96;;
43787;Laerm;29409;49.306;8.500;2023-05-07T03:39:03;42.95;37.70;51.95;;
43787;Laerm;29409;49.306;8.500;2023-05-07T03:40:04;43.68;37.52;53.07;;
43787;Laerm;29409;49.306;8.500;2023-05-07T03:41:05;42.55;37.70;50.83;;
43787;Laerm;29409;49.306;8.500;2023-05-07T03:42:05;42.58;37.88;51.14;;
43787;Laerm;29409;49.306;8.500;2023-05-07T03:43:05;42.40;38.05;51.84;;
43787;Laerm;29409;49.306;8.500;2023-05-07T03:44:05;41.94;38.05;51.33;;
43787;Laerm;29409;49.306;8.500;2023-05-07T03:45:06;42.64;37.52;52.81;;
43787;Laerm;29409;49.306;8.500;2023-05-07T03:46:07;41.85;37.12;53.13;;
43787;Laerm;29409;49.306;8.500;2023-05-07T03:47:07;42.20;36.91;53.54;;
43787;Laerm;29409;49.306;8.500;2023-05-07T03:48:07;41.93;38.37;49.97;;
43787;Laerm;29409;49.306;8.500;2023-05-07T03:49:08;41.05;37.70;50.73;;
43787;Laerm;29409;49.306;8.500;2023-05-07T03:50:08;41.79;37.12;48.85;;
43787;Laerm;29409;49.306;8.500;2023-05-07T03:51:09;42.07;37.52;50.52;;
43787;Laerm;29409;49.306;8.500;2023-05-07T03:52:09;41.66;36.69;48.07;;
43787;Laerm;29409;49.306;8.500;2023-05-07T03:53:10;41.58;37.12;48.55;;
43787;Laerm;29409;49.306;8.500;2023-05-07T03:54:10;41.84;38.05;47.34;;
43787;Laerm;29409;49.306;8.500;2023-05-07T03:55:10;42.36;37.70;49.32;;
43787;Laerm;29409;49.306;8.500;2023-05-07T03:56:10;41.27;37.32;49.34;;
43787;Laerm;29409;49.306;8.500;2023-05-07T03:57:11;41.42;36.91;48.42;;
43787;Laerm;29409;49.306;8.500;2023-05-07T03:58:11;43.36;38.37;54.69;;
43787;Laerm;29409;49.306;8.500;2023-05-07T03:59:12;41.93;37.70;55.49;;
43787;Laerm;29409;49.306;8.500;2023-05-07T04:00:13;42.56;37.88;54.56;;
43787;Laerm;29409;49.306;8.500;2023-05-07T04:01:13;43.34;38.67;53.61;;
43787;Laerm;29409;49.306;8.500;2023-05-07T04:02:13;44.60;38.21;62.32;;
43787;Laerm;29409;49.306;8.500;2023-05-07T04:03:14;44.21;38.05;50.68;;
43787;Laerm;29409;49.306;8.500;2023-05-07T04:04:14;41.75;38.37;49.79;;
43787;Laerm;29409;49.306;8.500;2023-05-07T04:05:15;42.05;37.52;49.60;;
43787;Laerm;29409;49.306;8.500;2023-05-07T04:06:16;39.79;36.69;46.13;;
43787;Laerm;29409;49.306;8.500;2023-05-07T04:07:17;40.80;36.91;56.72;;
43787;Laerm;29409;49.306;8.500;2023-05-07T04:08:17;41.73;37.52;54.82;;
43787;Laerm;29409;49.306;8.500;2023-05-07T04:09:17;41.28;36.91;53.21;;
43787;Laerm;29409;49.306;8.500;2023-05-07T04:10:18;41.02;37.70;47.46;;
43787;Laerm;29409;49.306;8.500;2023-05-07T04:11:18;40.51;37.52;45.27;;
43787;Laerm;29409;49.306;8.500;2023-05-07T04:12:18;41.28;37.12;58.67;;
43787;Laerm;29409;49.306;8.500;2023-05-07T04:13:18;40.82;37.12;49.19;;
43787;Laerm;29409;49.306;8.500;2023-05-07T04:14:19;40.74;37.32;45.54;;
43787;Laerm;29409;49.306;8.500;2023-05-07T04:15:19;40.71;37.12;47.44;;
43787;Laerm;29409;49.306;8.500;2023-05-07T04:16:19;42.17;38.05;52.68;;
43787;Laerm;29409;49.306;8.500;2023-05-07T04:17:20;40.77;37.32;46.66;;
43787;Laerm;29409;49.306;8.500;2023-05-07T04:18:20;40.77;37.35;47.79;;
43787;Laerm;29409;49.306;8.500;2023-05-07T04:19:21;40.60;37.52;45.60;;
43787;Laerm;29409;49.306;8.500;2023-05-07T04:20:21;41.44;36.69;46.77;;
43787;Laerm;29409;49.306;8.500;2023-05-07T04:21:21;41.80;37.88;46.33;;
43787;Laerm;29409;49.306;8.500;2023-05-07T04:22:22;41.90;37.88;49.98;;
43787;Laerm;29409;49.306;8.500;2023-05-07T04:23:22;41.88;37.70;49.38;;
43787;Laerm;29409;49.306;8.500;2023-05-07T04:24:22;41.02;36.69;46.93;;
43787;Laerm;29409;49.306;8.500;2023-05-07T04:25:22;41.45;37.88;46.45;;
43787;Laerm;29409;49.306;8.500;2023-05-07T04:26:26;41.84;36.91;47.96;;
43787;Laerm;29409;49.306;8.500;2023-05-07T04:27:26;41.31;37.52;49.91;;
43787;Laerm;29409;49.306;8.500;2023-05-07T04:28:28;46.56;38.05;57.50;;
43787;Laerm;29409;49.306;8.500;2023-05-07T04:29:28;40.72;36.69;47.46;;
43787;Laerm;29409;49.306;8.500;2023-05-07T04:30:28;41.72;37.88;49.63;;
43787;Laerm;29409;49.306;8.500;2023-05-07T04:31:28;41.10;38.05;49.20;;
43787;Laerm;29409;49.306;8.500;2023-05-07T04:32:30;40.51;37.12;52.50;;
43787;Laerm;29409;49.306;8.500;2023-05-07T04:33:31;40.79;36.91;50.02;;
43787;Laerm;29409;49.306;8.500;2023-05-07T04:34:31;42.08;38.21;53.82;;
43787;Laerm;29409;49.306;8.500;2023-05-07T04:35:31;41.27;38.21;51.96;;
43787;Laerm;29409;49.306;8.500;2023-05-07T04:36:32;48.86;38.21;64.75;;
43787;Laerm;29409;49.306;8.500;2023-05-07T04:37:33;41.57;38.81;47.67;;
43787;Laerm;29409;49.306;8.500;2023-05-07T04:38:33;41.78;39.08;49.72;;
43787;Laerm;29409;49.306;8.500;2023-05-07T04:39:33;42.76;36.91;65.75;;
43787;Laerm;29409;49.306;8.500;2023-05-07T04:40:35;40.96;38.05;52.84;;
43787;Laerm;29409;49.306;8.500;2023-05-07T04:41:36;40.71;36.20;50.29;;
43787;Laerm;29409;49.306;8.500;2023-05-07T04:42:36;41.20;38.05;51.15;;
43787;Laerm;29409;49.306;8.500;2023-05-07T04:43:36;42.92;38.67;49.69;;
43787;Laerm;29409;49.306;8.500;2023-05-07T04:44:37;42.12;38.21;51.24;;
43787;Laerm;29409;49.306;8.500;2023-05-07T04:45:37;41.77;37.70;50.77;;
43787;Laerm;29409;49.306;8.500;2023-05-07T04:46:40;41.21;36.20;52.44;;
43787;Laerm;29409;49.306;8.500;2023-05-07T04:47:40;40.48;37.12;54.91;;
43787;Laerm;29409;49.306;8.500;2023-05-07T04:48:40;40.64;36.69;48.26;;
43787;Laerm;29409;49.306;8.500;2023-05-07T04:49:41;41.54;37.88;47.40;;
43787;Laerm;29409;49.306;8.500;2023-05-07T04:50:41;41.48;37.52;46.25;;
43787;Laerm;29409;49.306;8.500;2023-05-07T04:51:41;41.36;37.70;48.23;;
43787;Laerm;29409;49.306;8.500;2023-05-07T04:52:42;41.58;37.17;49.28;;
43787;Laerm;29409;49.306;8.500;2023-05-07T04:53:43;43.02;38.95;52.66;;
43787;Laerm;29409;49.306;8.500;2023-05-07T04:54:43;44.17;38.52;54.89;;
43787;Laerm;29409;49.306;8.500;2023-05-07T04:55:44;41.85;37.88;49.58;;
43787;Laerm;29409;49.306;8.500;2023-05-07T04:56:45;42.77;38.67;53.99;;
43787;Laerm;29409;49.306;8.500;2023-05-07T04:57:45;41.13;37.32;50.43;;
43787;Laerm;29409;49.306;8.500;2023-05-07T04:58:45;40.98;37.32;46.89;;
43787;Laerm;29409;49.306;8.500;2023-05-07T04:59:46;42.23;37.88;50.31;;
43787;Laerm;29409;49.306;8.500;2023-05-07T05:00:46;43.22;38.67;50.85;;
43787;Laerm;29409;49.306;8.500;2023-05-07T05:01:46;42.54;37.70;50.39;;
43787;Laerm;29409;49.306;8.500;2023-05-07T05:02:47;40.80;37.32;48.07;;
43787;Laerm;29409;49.306;8.500;2023-05-07T05:03:47;42.25;37.52;51.53;;
43787;Laerm;29409;49.306;8.500;2023-05-07T05:04:47;42.03;38.05;51.75;;
43787;Laerm;29409;49.306;8.500;2023-05-07T05:05:48;41.92;38.05;46.20;;
43787;Laerm;29409;49.306;8.500;2023-05-07T05:06:49;41.48;37.70;50.56;;
43787;Laerm;29409;49.306;8.500;2023-05-07T05:07:49;41.06;37.12;50.76;;
43787;Laerm;29409;49.306;8.500;2023-05-07T05:08:51;42.03;37.52;50.61;;
43787;Laerm;29409;49.306;8.500;2023-05-07T05:09:51;40.54;37.32;45.51;;
43787;Laerm;29409;49.306;8.500;2023-05-07T05:10:52;40.97;37.32;45.69;;
43787;Laerm;29409;49.306;8.500;2023-05-07T05:11:52;43.85;37.88;48.13;;
43787;Laerm;29409;49.306;8.500;2023-05-07T05:12:53;41.39;37.12;45.97;;
43787;Laerm;29409;49.306;8.500;2023-05-07T05:13:54;40.22;37.32;43.72;;
43787;Laerm;29409;49.306;8.500;2023-05-07T05:14:54;41.59;37.88;50.37;;
43787;Laerm;29409;49.306;8.500;2023-05-07T05:15:54;42.14;38.37;51.87;;
43787;Laerm;29409;49.306;8.500;2023-05-07T05:16:54;41.62;38.95;46.35;;
43787;Laerm;29409;49.306;8.500;2023-05-07T05:17:54;43.09;38.37;50.68;;
43787;Laerm;29409;49.306;8.500;2023-05-07T05:18:55;41.93;37.32;49.91;;
43787;Laerm;29409;49.306;8.500;2023-05-07T05:19:55;43.04;38.21;53.10;;
43787;Laerm;29409;49.306;8.500;2023-05-07T05:20:56;42.27;38.21;50.88;;
43787;Laerm;29409;49.306;8.500;2023-05-07T05:21:56;41.81;38.05;54.20;;
43787;Laerm;29409;49.306;8.500;2023-05-07T05:22:56;41.50;38.21;51.14;;
43787;Laerm;29409;49.306;8.500;2023-05-07T05:23:56;41.25;38.21;44.27;;
43787;Laerm;29409;49.306;8.500;2023-05-07T05:24:57;40.88;37.88;43.90;;
43787;Laerm;29409;49.306;8.500;2023-05-07T05:25:57;41.64;38.52;45.80;;
43787;Laerm;29409;49.306;8.500;2023-05-07T05:26:58;42.09;38.37;51.03;;
43787;Laerm;29409;49.306;8.500;2023-05-07T05:28:01;42.34;38.81;46.35;;
43787;Laerm;29409;49.306;8.500;2023-05-07T05:29:01;41.65;38.81;46.57;;
43787;Laerm;29409;49.306;8.500;2023-05-07T05:30:02;46.62;39.08;69.09;;
43787;Laerm;29409;49.306;8.500;2023-05-07T05:31:02;42.51;39.81;54.27;;
43787;Laerm;29409;49.306;8.500;2023-05-07T05:32:02;41.72;38.37;48.85;;
43787;Laerm;29409;49.306;8.500;2023-05-07T05:33:03;41.88;38.67;53.08;;
43787;Laerm;29409;49.306;8.500;2023-05-07T05:34:03;43.89;38.52;54.25;;
43787;Laerm;29409;49.306;8.500;2023-05-07T05:35:04;42.88;38.95;50.33;;
43787;Laerm;29409;49.306;8.500;2023-05-07T05:36:04;43.03;40.03;52.71;;
43787;Laerm;29409;49.306;8.500;2023-05-07T05:37:04;42.74;38.95;51.71;;
43787;Laerm;29409;49.306;8.500;2023-05-07T05:38:05;41.32;37.70;44.56;;
43787;Laerm;29409;49.306;8.500;2023-05-07T05:39:05;42.00;39.34;46.48;;